sensor_id;sensor_type;location;lat;lon;timestamp;P1;durP1;ratioP1;P2;durP2;ratioP2
12990;SDS011;6560;57.692;11.958;2023-04-24T00:00:11;24.97;;;19.30;;
12990;SDS011;6560;57.692;11.958;2023-04-24T00:02:40;25.90;;;20.30;;
12990;SDS011;6560;57.692;11.958;2023-04-24T00:05:11;24.73;;;19.00;;
12990;SDS011;6560;57.692;11.958;2023-04-24T00:07:42;25.70;;;19.70;;
12990;SDS011;6560;57.692;11.958;2023-04-24T00:10:10;20.80;;;17.73;;
12990;SDS011;6560;57.692;11.958;2023-04-24T00:12:36;22.97;;;19.87;;
12990;SDS011;6560;57.692;11.958;2023-04-24T00:15:02;23.80;;;19.37;;
12990;SDS011;6560;57.692;11.958;2023-04-24T00:17:29;23.80;;;19.03;;
12990;SDS011;6560;57.692;11.958;2023-04-24T00:19:55;24.00;;;18.70;;
12990;SDS011;6560;57.692;11.958;2023-04-24T00:22:25;23.47;;;18.07;;
12990;SDS011;6560;57.692;11.958;2023-04-24T00:24:51;22.07;;;18.37;;
12990;SDS011;6560;57.692;11.958;2023-04-24T00:27:16;21.70;;;18.23;;
12990;SDS011;6560;57.692;11.958;2023-04-24T00:29:42;23.40;;;19.03;;
12990;SDS011;6560;57.692;11.958;2023-04-24T00:32:08;23.13;;;18.07;;
12990;SDS011;6560;57.692;11.958;2023-04-24T00:34:33;27.40;;;20.17;;
12990;SDS011;6560;57.692;11.958;2023-04-24T00:36:59;26.60;;;18.70;;
12990;SDS011;6560;57.692;11.958;2023-04-24T00:39:25;25.07;;;19.07;;
12990;SDS011;6560;57.692;11.958;2023-04-24T00:41:50;26.43;;;19.77;;
12990;SDS011;6560;57.692;11.958;2023-04-24T00:44:18;20.80;;;18.27;;
12990;SDS011;6560;57.692;11.958;2023-04-24T00:46:45;27.10;;;18.33;;
12990;SDS011;6560;57.692;11.958;2023-04-24T00:49:16;26.57;;;18.97;;
12990;SDS011;6560;57.692;11.958;2023-04-24T00:54:25;24.00;;;18.50;;
12990;SDS011;6560;57.692;11.958;2023-04-24T00:56:57;23.90;;;18.67;;
12990;SDS011;6560;57.692;11.958;2023-04-24T00:59:22;22.87;;;17.10;;
12990;SDS011;6560;57.692;11.958;2023-04-24T01:01:49;26.83;;;20.07;;
12990;SDS011;6560;57.692;11.958;2023-04-24T01:04:16;27.23;;;20.53;;
12990;SDS011;6560;57.692;11.958;2023-04-24T01:06:43;23.93;;;18.10;;
12990;SDS011;6560;57.692;11.958;2023-04-24T01:09:10;27.43;;;18.87;;
12990;SDS011;6560;57.692;11.958;2023-04-24T01:11:37;23.57;;;17.77;;
12990;SDS011;6560;57.692;11.958;2023-04-24T01:14:03;24.97;;;19.27;;
12990;SDS011;6560;57.692;11.958;2023-04-24T01:16:29;23.03;;;18.63;;
12990;SDS011;6560;57.692;11.958;2023-04-24T01:18:54;26.10;;;18.07;;
12990;SDS011;6560;57.692;11.958;2023-04-24T01:21:20;24.90;;;17.60;;
12990;SDS011;6560;57.692;11.958;2023-04-24T01:23:49;22.60;;;18.80;;
12990;SDS011;6560;57.692;11.958;2023-04-24T01:26:16;22.77;;;19.70;;
12990;SDS011;6560;57.692;11.958;2023-04-24T01:28:42;22.13;;;17.97;;
12990;SDS011;6560;57.692;11.958;2023-04-24T01:31:08;23.07;;;18.13;;
12990;SDS011;6560;57.692;11.958;2023-04-24T01:33:33;22.03;;;18.13;;
12990;SDS011;6560;57.692;11.958;2023-04-24T01:35:59;24.03;;;19.70;;
12990;SDS011;6560;57.692;11.958;2023-04-24T01:38:25;23.90;;;18.53;;
12990;SDS011;6560;57.692;11.958;2023-04-24T01:40:52;21.90;;;17.37;;
12990;SDS011;6560;57.692;11.958;2023-04-24T01:43:17;20.00;;;17.13;;
12990;SDS011;6560;57.692;11.958;2023-04-24T01:45:43;24.77;;;20.00;;
12990;SDS011;6560;57.692;11.958;2023-04-24T01:48:11;21.27;;;17.43;;
12990;SDS011;6560;57.692;11.958;2023-04-24T01:50:37;24.10;;;17.47;;
12990;SDS011;6560;57.692;11.958;2023-04-24T01:53:03;23.40;;;19.07;;
12990;SDS011;6560;57.692;11.958;2023-04-24T01:55:28;21.73;;;17.37;;
12990;SDS011;6560;57.692;11.958;2023-04-24T01:57:55;20.27;;;17.63;;
12990;SDS011;6560;57.692;11.958;2023-04-24T02:00:22;22.17;;;17.43;;
12990;SDS011;6560;57.692;11.958;2023-04-24T02:02:48;22.00;;;18.23;;
12990;SDS011;6560;57.692;11.958;2023-04-24T02:05:13;23.87;;;17.83;;
12990;SDS011;6560;57.692;11.958;2023-04-24T02:07:39;22.90;;;18.17;;
12990;SDS011;6560;57.692;11.958;2023-04-24T02:10:05;24.93;;;18.20;;
12990;SDS011;6560;57.692;11.958;2023-04-24T02:12:31;21.77;;;15.67;;
12990;SDS011;6560;57.692;11.958;2023-04-24T02:14:57;24.27;;;18.00;;
12990;SDS011;6560;57.692;11.958;2023-04-24T02:17:23;23.50;;;17.87;;
12990;SDS011;6560;57.692;11.958;2023-04-24T02:19:48;28.80;;;19.03;;
12990;SDS011;6560;57.692;11.958;2023-04-24T02:22:14;24.93;;;17.33;;
12990;SDS011;6560;57.692;11.958;2023-04-24T02:24:39;23.90;;;17.57;;
12990;SDS011;6560;57.692;11.958;2023-04-24T02:27:05;23.77;;;16.07;;
12990;SDS011;6560;57.692;11.958;2023-04-24T02:29:31;22.67;;;17.20;;
12990;SDS011;6560;57.692;11.958;2023-04-24T02:31:57;20.00;;;16.80;;
12990;SDS011;6560;57.692;11.958;2023-04-24T02:34:22;23.03;;;17.33;;
12990;SDS011;6560;57.692;11.958;2023-04-24T02:36:48;21.10;;;17.87;;
12990;SDS011;6560;57.692;11.958;2023-04-24T02:39:14;20.13;;;15.77;;
12990;SDS011;6560;57.692;11.958;2023-04-24T02:41:44;22.77;;;17.63;;
12990;SDS011;6560;57.692;11.958;2023-04-24T02:44:09;19.87;;;16.83;;
12990;SDS011;6560;57.692;11.958;2023-04-24T02:46:35;27.60;;;16.73;;
12990;SDS011;6560;57.692;11.958;2023-04-24T02:49:01;20.27;;;16.27;;
12990;SDS011;6560;57.692;11.958;2023-04-24T02:51:27;20.70;;;16.70;;
12990;SDS011;6560;57.692;11.958;2023-04-24T02:53:53;20.53;;;16.93;;
12990;SDS011;6560;57.692;11.958;2023-04-24T02:56:18;18.40;;;16.40;;
12990;SDS011;6560;57.692;11.958;2023-04-24T02:58:44;20.03;;;16.20;;
12990;SDS011;6560;57.692;11.958;2023-04-24T03:01:10;21.83;;;17.80;;
12990;SDS011;6560;57.692;11.958;2023-04-24T03:03:41;20.90;;;15.60;;
12990;SDS011;6560;57.692;11.958;2023-04-24T03:06:08;20.07;;;15.77;;
12990;SDS011;6560;57.692;11.958;2023-04-24T03:08:37;21.27;;;16.97;;
12990;SDS011;6560;57.692;11.958;2023-04-24T03:11:02;21.13;;;16.10;;
12990;SDS011;6560;57.692;11.958;2023-04-24T03:13:28;23.13;;;18.33;;
12990;SDS011;6560;57.692;11.958;2023-04-24T03:15:55;20.63;;;16.17;;
12990;SDS011;6560;57.692;11.958;2023-04-24T03:18:20;19.90;;;15.87;;
12990;SDS011;6560;57.692;11.958;2023-04-24T03:20:48;17.73;;;15.63;;
12990;SDS011;6560;57.692;11.958;2023-04-24T03:23:16;19.40;;;15.37;;
12990;SDS011;6560;57.692;11.958;2023-04-24T03:25:42;21.80;;;16.83;;
12990;SDS011;6560;57.692;11.958;2023-04-24T03:28:08;21.47;;;17.27;;
12990;SDS011;6560;57.692;11.958;2023-04-24T03:30:34;21.10;;;16.63;;
12990;SDS011;6560;57.692;11.958;2023-04-24T03:32:59;21.53;;;15.43;;
12990;SDS011;6560;57.692;11.958;2023-04-24T03:35:25;19.63;;;14.77;;
12990;SDS011;6560;57.692;11.958;2023-04-24T03:37:51;20.13;;;16.17;;
12990;SDS011;6560;57.692;11.958;2023-04-24T03:40:16;18.83;;;15.47;;
12990;SDS011;6560;57.692;11.958;2023-04-24T03:42:42;21.23;;;15.97;;
12990;SDS011;6560;57.692;11.958;2023-04-24T03:45:07;23.53;;;16.37;;
12990;SDS011;6560;57.692;11.958;2023-04-24T03:47:33;19.70;;;15.57;;
12990;SDS011;6560;57.692;11.958;2023-04-24T03:49:59;22.57;;;14.53;;
12990;SDS011;6560;57.692;11.958;2023-04-24T03:52:24;17.03;;;15.23;;
12990;SDS011;6560;57.692;11.958;2023-04-24T03:54:50;21.70;;;15.90;;
12990;SDS011;6560;57.692;11.958;2023-04-24T03:57:15;20.63;;;15.57;;
12990;SDS011;6560;57.692;11.958;2023-04-24T03:59:41;22.17;;;16.40;;
12990;SDS011;6560;57.692;11.958;2023-04-24T04:02:07;20.07;;;15.83;;
12990;SDS011;6560;57.692;11.958;2023-04-24T04:04:32;19.90;;;15.93;;
12990;SDS011;6560;57.692;11.958;2023-04-24T04:06:58;16.83;;;13.97;;
12990;SDS011;6560;57.692;11.958;2023-04-24T04:09:26;17.57;;;15.27;;
12990;SDS011;6560;57.692;11.958;2023-04-24T04:11:52;17.60;;;15.70;;
12990;SDS011;6560;57.692;11.958;2023-04-24T04:14:17;19.37;;;15.57;;
12990;SDS011;6560;57.692;11.958;2023-04-24T04:16:43;19.80;;;15.30;;
12990;SDS011;6560;57.692;11.958;2023-04-24T04:19:08;22.07;;;14.93;;
12990;SDS011;6560;57.692;11.958;2023-04-24T04:21:34;19.87;;;15.50;;
12990;SDS011;6560;57.692;11.958;2023-04-24T04:24:00;25.57;;;15.07;;
12990;SDS011;6560;57.692;11.958;2023-04-24T04:26:25;20.27;;;15.37;;
12990;SDS011;6560;57.692;11.958;2023-04-24T04:28:51;20.10;;;14.33;;
12990;SDS011;6560;57.692;11.958;2023-04-24T04:31:18;16.87;;;15.13;;
12990;SDS011;6560;57.692;11.958;2023-04-24T04:33:46;15.50;;;13.90;;
12990;SDS011;6560;57.692;11.958;2023-04-24T04:36:11;15.57;;;13.83;;
12990;SDS011;6560;57.692;11.958;2023-04-24T04:38:37;17.23;;;14.53;;
12990;SDS011;6560;57.692;11.958;2023-04-24T04:41:03;18.23;;;14.50;;
12990;SDS011;6560;57.692;11.958;2023-04-24T04:43:35;15.43;;;13.17;;
12990;SDS011;6560;57.692;11.958;2023-04-24T04:46:01;15.73;;;13.80;;
12990;SDS011;6560;57.692;11.958;2023-04-24T04:48:28;15.47;;;13.37;;
12990;SDS011;6560;57.692;11.958;2023-04-24T04:50:56;19.40;;;14.33;;
12990;SDS011;6560;57.692;11.958;2023-04-24T04:53:22;17.50;;;15.17;;
12990;SDS011;6560;57.692;11.958;2023-04-24T04:55:48;18.93;;;13.87;;
12990;SDS011;6560;57.692;11.958;2023-04-24T04:58:13;16.73;;;13.30;;
12990;SDS011;6560;57.692;11.958;2023-04-24T05:00:39;16.83;;;13.17;;
12990;SDS011;6560;57.692;11.958;2023-04-24T05:03:04;15.63;;;13.00;;
12990;SDS011;6560;57.692;11.958;2023-04-24T05:05:30;15.57;;;13.43;;
12990;SDS011;6560;57.692;11.958;2023-04-24T05:07:55;14.50;;;13.00;;
12990;SDS011;6560;57.692;11.958;2023-04-24T05:10:21;16.23;;;13.20;;
12990;SDS011;6560;57.692;11.958;2023-04-24T05:12:46;15.23;;;13.47;;
12990;SDS011;6560;57.692;11.958;2023-04-24T05:15:12;15.27;;;12.50;;
12990;SDS011;6560;57.692;11.958;2023-04-24T05:17:37;15.57;;;12.87;;
12990;SDS011;6560;57.692;11.958;2023-04-24T05:20:06;14.10;;;12.63;;
12990;SDS011;6560;57.692;11.958;2023-04-24T05:22:32;14.73;;;12.50;;
12990;SDS011;6560;57.692;11.958;2023-04-24T05:24:59;13.27;;;11.87;;
12990;SDS011;6560;57.692;11.958;2023-04-24T05:27:26;14.17;;;12.70;;
12990;SDS011;6560;57.692;11.958;2023-04-24T05:32:28;15.30;;;12.67;;
12990;SDS011;6560;57.692;11.958;2023-04-24T05:35:01;15.77;;;12.93;;
12990;SDS011;6560;57.692;11.958;2023-04-24T05:37:54;13.67;;;12.23;;
12990;SDS011;6560;57.692;11.958;2023-04-24T05:40:26;12.57;;;11.27;;
12990;SDS011;6560;57.692;11.958;2023-04-24T05:43:24;15.03;;;12.37;;
12990;SDS011;6560;57.692;11.958;2023-04-24T05:46:19;13.93;;;12.03;;
12990;SDS011;6560;57.692;11.958;2023-04-24T05:48:46;15.97;;;13.40;;
12990;SDS011;6560;57.692;11.958;2023-04-24T05:51:14;13.97;;;11.73;;
12990;SDS011;6560;57.692;11.958;2023-04-24T05:54:08;14.30;;;12.77;;
12990;SDS011;6560;57.692;11.958;2023-04-24T05:56:35;13.70;;;11.80;;
12990;SDS011;6560;57.692;11.958;2023-04-24T05:59:09;13.70;;;12.10;;
12990;SDS011;6560;57.692;11.958;2023-04-24T06:01:35;15.47;;;12.20;;
12990;SDS011;6560;57.692;11.958;2023-04-24T06:04:03;14.23;;;12.47;;
12990;SDS011;6560;57.692;11.958;2023-04-24T06:06:30;13.90;;;11.77;;
12990;SDS011;6560;57.692;11.958;2023-04-24T06:08:57;13.57;;;11.87;;
12990;SDS011;6560;57.692;11.958;2023-04-24T06:11:25;14.07;;;11.57;;
12990;SDS011;6560;57.692;11.958;2023-04-24T06:13:52;13.97;;;12.57;;
12990;SDS011;6560;57.692;11.958;2023-04-24T06:16:25;13.97;;;12.07;;
12990;SDS011;6560;57.692;11.958;2023-04-24T06:18:51;13.73;;;11.10;;
12990;SDS011;6560;57.692;11.958;2023-04-24T06:21:18;15.40;;;10.43;;
12990;SDS011;6560;57.692;11.958;2023-04-24T06:23:46;14.50;;;12.47;;
12990;SDS011;6560;57.692;11.958;2023-04-24T06:26:19;14.83;;;10.90;;
12990;SDS011;6560;57.692;11.958;2023-04-24T06:28:45;13.27;;;11.70;;
12990;SDS011;6560;57.692;11.958;2023-04-24T06:31:10;14.17;;;11.33;;
12990;SDS011;6560;57.692;11.958;2023-04-24T06:33:49;13.50;;;11.73;;
12990;SDS011;6560;57.692;11.958;2023-04-24T06:36:15;12.93;;;10.87;;
12990;SDS011;6560;57.692;11.958;2023-04-24T06:38:40;12.60;;;11.30;;
12990;SDS011;6560;57.692;11.958;2023-04-24T06:41:06;15.50;;;11.20;;
12990;SDS011;6560;57.692;11.958;2023-04-24T06:43:32;14.13;;;11.43;;
12990;SDS011;6560;57.692;11.958;2023-04-24T06:45:59;11.90;;;9.90;;
12990;SDS011;6560;57.692;11.958;2023-04-24T06:48:25;13.43;;;10.10;;
12990;SDS011;6560;57.692;11.958;2023-04-24T06:50:51;12.50;;;10.40;;
12990;SDS011;6560;57.692;11.958;2023-04-24T06:53:17;12.17;;;10.93;;
12990;SDS011;6560;57.692;11.958;2023-04-24T06:55:43;11.60;;;10.00;;
12990;SDS011;6560;57.692;11.958;2023-04-24T06:58:11;12.77;;;10.13;;
12990;SDS011;6560;57.692;11.958;2023-04-24T07:00:36;12.60;;;10.27;;
12990;SDS011;6560;57.692;11.958;2023-04-24T07:03:03;11.70;;;10.13;;
12990;SDS011;6560;57.692;11.958;2023-04-24T07:05:30;11.43;;;9.53;;
12990;SDS011;6560;57.692;11.958;2023-04-24T07:07:56;10.37;;;9.37;;
12990;SDS011;6560;57.692;11.958;2023-04-24T07:10:23;12.57;;;10.07;;
12990;SDS011;6560;57.692;11.958;2023-04-24T07:12:49;12.13;;;10.83;;
12990;SDS011;6560;57.692;11.958;2023-04-24T07:15:15;12.13;;;10.73;;
12990;SDS011;6560;57.692;11.958;2023-04-24T07:17:41;12.27;;;10.20;;
12990;SDS011;6560;57.692;11.958;2023-04-24T07:20:10;13.03;;;10.80;;
12990;SDS011;6560;57.692;11.958;2023-04-24T07:22:37;12.33;;;9.90;;
12990;SDS011;6560;57.692;11.958;2023-04-24T07:25:03;12.37;;;11.07;;
12990;SDS011;6560;57.692;11.958;2023-04-24T07:27:29;14.47;;;11.10;;
12990;SDS011;6560;57.692;11.958;2023-04-24T07:29:55;11.77;;;10.57;;
12990;SDS011;6560;57.692;11.958;2023-04-24T07:32:27;16.43;;;11.60;;
12990;SDS011;6560;57.692;11.958;2023-04-24T07:34:52;12.30;;;10.93;;
12990;SDS011;6560;57.692;11.958;2023-04-24T07:37:18;12.73;;;11.50;;
12990;SDS011;6560;57.692;11.958;2023-04-24T07:39:44;12.37;;;11.00;;
12990;SDS011;6560;57.692;11.958;2023-04-24T07:42:11;13.33;;;11.93;;
12990;SDS011;6560;57.692;11.958;2023-04-24T07:44:36;15.97;;;11.83;;
12990;SDS011;6560;57.692;11.958;2023-04-24T07:47:07;14.77;;;11.40;;
12990;SDS011;6560;57.692;11.958;2023-04-24T07:49:58;15.13;;;12.47;;
12990;SDS011;6560;57.692;11.958;2023-04-24T07:52:24;18.30;;;12.40;;
12990;SDS011;6560;57.692;11.958;2023-04-24T07:54:52;14.57;;;12.90;;
12990;SDS011;6560;57.692;11.958;2023-04-24T07:57:24;13.27;;;11.80;;
12990;SDS011;6560;57.692;11.958;2023-04-24T07:59:51;14.97;;;13.03;;
12990;SDS011;6560;57.692;11.958;2023-04-24T08:02:18;19.97;;;12.60;;
12990;SDS011;6560;57.692;11.958;2023-04-24T08:04:51;16.37;;;13.80;;
12990;SDS011;6560;57.692;11.958;2023-04-24T08:07:37;16.70;;;13.47;;
12990;SDS011;6560;57.692;11.958;2023-04-24T08:10:03;16.97;;;13.93;;
12990;SDS011;6560;57.692;11.958;2023-04-24T08:12:29;18.37;;;13.07;;
12990;SDS011;6560;57.692;11.958;2023-04-24T08:14:55;22.80;;;15.07;;
12990;SDS011;6560;57.692;11.958;2023-04-24T08:17:21;18.40;;;15.50;;
12990;SDS011;6560;57.692;11.958;2023-04-24T08:19:46;17.97;;;14.40;;
12990;SDS011;6560;57.692;11.958;2023-04-24T08:22:16;21.47;;;14.83;;
12990;SDS011;6560;57.692;11.958;2023-04-24T08:24:41;17.37;;;14.67;;
12990;SDS011;6560;57.692;11.958;2023-04-24T08:27:08;19.17;;;15.07;;
12990;SDS011;6560;57.692;11.958;2023-04-24T08:29:33;19.20;;;14.63;;
12990;SDS011;6560;57.692;11.958;2023-04-24T08:31:59;19.77;;;15.40;;
12990;SDS011;6560;57.692;11.958;2023-04-24T08:34:24;20.37;;;14.60;;
12990;SDS011;6560;57.692;11.958;2023-04-24T08:36:50;25.20;;;16.80;;
12990;SDS011;6560;57.692;11.958;2023-04-24T08:39:15;21.50;;;15.30;;
12990;SDS011;6560;57.692;11.958;2023-04-24T08:41:43;19.97;;;16.03;;
12990;SDS011;6560;57.692;11.958;2023-04-24T08:44:10;21.83;;;15.33;;
12990;SDS011;6560;57.692;11.958;2023-04-24T08:46:37;18.50;;;14.43;;
12990;SDS011;6560;57.692;11.958;2023-04-24T08:49:04;18.43;;;15.37;;
12990;SDS011;6560;57.692;11.958;2023-04-24T08:51:30;19.57;;;15.43;;
12990;SDS011;6560;57.692;11.958;2023-04-24T08:53:56;21.03;;;14.07;;
12990;SDS011;6560;57.692;11.958;2023-04-24T08:56:22;17.57;;;13.97;;
12990;SDS011;6560;57.692;11.958;2023-04-24T08:58:50;15.40;;;13.80;;
12990;SDS011;6560;57.692;11.958;2023-04-24T09:01:16;18.73;;;14.50;;
12990;SDS011;6560;57.692;11.958;2023-04-24T09:03:49;14.70;;;12.17;;
12990;SDS011;6560;57.692;11.958;2023-04-24T09:06:15;15.93;;;11.47;;
12990;SDS011;6560;57.692;11.958;2023-04-24T09:08:43;13.10;;;11.53;;
12990;SDS011;6560;57.692;11.958;2023-04-24T09:11:10;13.37;;;10.67;;
12990;SDS011;6560;57.692;11.958;2023-04-24T09:13:37;13.37;;;10.70;;
12990;SDS011;6560;57.692;11.958;2023-04-24T09:16:03;13.70;;;10.37;;
12990;SDS011;6560;57.692;11.958;2023-04-24T09:18:28;13.07;;;10.43;;
12990;SDS011;6560;57.692;11.958;2023-04-24T09:21:05;13.33;;;9.87;;
12990;SDS011;6560;57.692;11.958;2023-04-24T09:23:33;12.40;;;10.93;;
12990;SDS011;6560;57.692;11.958;2023-04-24T09:25:59;13.00;;;10.20;;
12990;SDS011;6560;57.692;11.958;2023-04-24T09:28:29;13.17;;;9.87;;
12990;SDS011;6560;57.692;11.958;2023-04-24T09:31:05;13.10;;;10.07;;
12990;SDS011;6560;57.692;11.958;2023-04-24T09:33:36;13.27;;;10.90;;
12990;SDS011;6560;57.692;11.958;2023-04-24T09:36:02;14.07;;;11.23;;
12990;SDS011;6560;57.692;11.958;2023-04-24T09:38:37;15.33;;;11.00;;
12990;SDS011;6560;57.692;11.958;2023-04-24T09:41:07;12.33;;;10.17;;
12990;SDS011;6560;57.692;11.958;2023-04-24T09:43:33;14.13;;;10.93;;
12990;SDS011;6560;57.692;11.958;2023-04-24T09:46:04;14.00;;;11.47;;
12990;SDS011;6560;57.692;11.958;2023-04-24T09:48:35;11.13;;;9.90;;
12990;SDS011;6560;57.692;11.958;2023-04-24T09:51:02;10.73;;;9.60;;
12990;SDS011;6560;57.692;11.958;2023-04-24T09:53:28;13.57;;;10.97;;
12990;SDS011;6560;57.692;11.958;2023-04-24T09:55:55;13.13;;;10.27;;
12990;SDS011;6560;57.692;11.958;2023-04-24T09:58:27;12.07;;;9.93;;
12990;SDS011;6560;57.692;11.958;2023-04-24T10:00:59;11.27;;;9.67;;
12990;SDS011;6560;57.692;11.958;2023-04-24T10:03:36;12.87;;;9.57;;
12990;SDS011;6560;57.692;11.958;2023-04-24T10:06:02;12.87;;;9.97;;
12990;SDS011;6560;57.692;11.958;2023-04-24T10:08:34;11.13;;;9.67;;
12990;SDS011;6560;57.692;11.958;2023-04-24T10:11:00;9.93;;;8.80;;
12990;SDS011;6560;57.692;11.958;2023-04-24T10:13:26;11.07;;;9.50;;
12990;SDS011;6560;57.692;11.958;2023-04-24T10:15:53;11.17;;;9.17;;
12990;SDS011;6560;57.692;11.958;2023-04-24T10:18:21;11.10;;;9.87;;
12990;SDS011;6560;57.692;11.958;2023-04-24T10:20:47;10.73;;;9.27;;
12990;SDS011;6560;57.692;11.958;2023-04-24T10:23:14;12.77;;;10.33;;
12990;SDS011;6560;57.692;11.958;2023-04-24T10:25:40;10.40;;;9.40;;
12990;SDS011;6560;57.692;11.958;2023-04-24T10:28:06;9.77;;;8.77;;
12990;SDS011;6560;57.692;11.958;2023-04-24T10:30:33;13.13;;;10.50;;
12990;SDS011;6560;57.692;11.958;2023-04-24T10:33:06;11.70;;;10.47;;
12990;SDS011;6560;57.692;11.958;2023-04-24T10:35:38;10.57;;;9.23;;
12990;SDS011;6560;57.692;11.958;2023-04-24T10:38:07;11.57;;;10.37;;
12990;SDS011;6560;57.692;11.958;2023-04-24T10:40:36;10.13;;;9.13;;
12990;SDS011;6560;57.692;11.958;2023-04-24T10:43:02;9.83;;;8.93;;
12990;SDS011;6560;57.692;11.958;2023-04-24T10:45:31;10.70;;;8.47;;
12990;SDS011;6560;57.692;11.958;2023-04-24T10:48:03;9.90;;;8.83;;
12990;SDS011;6560;57.692;11.958;2023-04-24T10:50:45;9.80;;;8.80;;
12990;SDS011;6560;57.692;11.958;2023-04-24T10:53:19;8.40;;;7.50;;
12990;SDS011;6560;57.692;11.958;2023-04-24T10:55:47;9.60;;;7.60;;
12990;SDS011;6560;57.692;11.958;2023-04-24T10:58:21;9.10;;;8.10;;
12990;SDS011;6560;57.692;11.958;2023-04-24T11:00:57;7.63;;;6.83;;
12990;SDS011;6560;57.692;11.958;2023-04-24T11:03:27;8.33;;;7.23;;
12990;SDS011;6560;57.692;11.958;2023-04-24T11:06:04;7.37;;;6.67;;
12990;SDS011;6560;57.692;11.958;2023-04-24T11:11:13;7.73;;;7.03;;
12990;SDS011;6560;57.692;11.958;2023-04-24T11:16:21;8.20;;;7.00;;
12990;SDS011;6560;57.692;11.958;2023-04-24T11:19:01;7.90;;;6.93;;
12990;SDS011;6560;57.692;11.958;2023-04-24T11:27:13;6.30;;;5.70;;
12990;SDS011;6560;57.692;11.958;2023-04-24T11:29:46;7.10;;;6.40;;
12990;SDS011;6560;57.692;11.958;2023-04-24T11:37:42;6.87;;;6.23;;
12990;SDS011;6560;57.692;11.958;2023-04-24T11:40:14;7.00;;;6.30;;
12990;SDS011;6560;57.692;11.958;2023-04-24T11:42:44;5.77;;;5.17;;
12990;SDS011;6560;57.692;11.958;2023-04-24T11:45:14;6.37;;;5.77;;
12990;SDS011;6560;57.692;11.958;2023-04-24T11:47:41;5.10;;;4.70;;
12990;SDS011;6560;57.692;11.958;2023-04-24T11:50:09;6.07;;;5.50;;
12990;SDS011;6560;57.692;11.958;2023-04-24T11:52:37;6.23;;;5.47;;
12990;SDS011;6560;57.692;11.958;2023-04-24T11:55:03;6.03;;;5.43;;
12990;SDS011;6560;57.692;11.958;2023-04-24T11:57:29;5.10;;;4.60;;
12990;SDS011;6560;57.692;11.958;2023-04-24T12:00:02;5.43;;;4.80;;
12990;SDS011;6560;57.692;11.958;2023-04-24T12:02:30;5.50;;;4.80;;
12990;SDS011;6560;57.692;11.958;2023-04-24T12:04:56;5.37;;;4.87;;
12990;SDS011;6560;57.692;11.958;2023-04-24T12:07:22;6.40;;;4.90;;
12990;SDS011;6560;57.692;11.958;2023-04-24T12:09:50;4.97;;;4.57;;
12990;SDS011;6560;57.692;11.958;2023-04-24T12:12:23;5.03;;;4.53;;
12990;SDS011;6560;57.692;11.958;2023-04-24T12:14:54;4.77;;;4.27;;
12990;SDS011;6560;57.692;11.958;2023-04-24T12:17:29;5.50;;;4.53;;
12990;SDS011;6560;57.692;11.958;2023-04-24T12:19:59;5.13;;;3.80;;
12990;SDS011;6560;57.692;11.958;2023-04-24T12:22:26;5.95;;;4.70;;
12990;SDS011;6560;57.692;11.958;2023-04-24T12:24:59;4.57;;;3.97;;
12990;SDS011;6560;57.692;11.958;2023-04-24T12:27:33;5.32;;;3.88;;
12990;SDS011;6560;57.692;11.958;2023-04-24T12:29:59;4.20;;;3.80;;
12990;SDS011;6560;57.692;11.958;2023-04-24T12:32:26;3.60;;;3.30;;
12990;SDS011;6560;57.692;11.958;2023-04-24T12:34:53;4.43;;;4.03;;
12990;SDS011;6560;57.692;11.958;2023-04-24T12:37:19;4.57;;;3.80;;
12990;SDS011;6560;57.692;11.958;2023-04-24T12:40:27;3.60;;;3.30;;
12990;SDS011;6560;57.692;11.958;2023-04-24T12:42:58;4.43;;;3.37;;
12990;SDS011;6560;57.692;11.958;2023-04-24T12:45:24;4.23;;;3.90;;
12990;SDS011;6560;57.692;11.958;2023-04-24T12:47:53;3.80;;;3.50;;
12990;SDS011;6560;57.692;11.958;2023-04-24T12:50:23;5.20;;;3.23;;
12990;SDS011;6560;57.692;11.958;2023-04-24T12:52:54;4.50;;;3.63;;
12990;SDS011;6560;57.692;11.958;2023-04-24T12:55:22;3.70;;;3.40;;
12990;SDS011;6560;57.692;11.958;2023-04-24T12:57:53;3.87;;;3.50;;
12990;SDS011;6560;57.692;11.958;2023-04-24T13:00:20;3.43;;;3.13;;
12990;SDS011;6560;57.692;11.958;2023-04-24T13:02:46;4.87;;;3.63;;
12990;SDS011;6560;57.692;11.958;2023-04-24T13:05:11;3.30;;;3.10;;
12990;SDS011;6560;57.692;11.958;2023-04-24T13:07:39;3.77;;;3.47;;
12990;SDS011;6560;57.692;11.958;2023-04-24T13:10:05;4.10;;;3.70;;
12990;SDS011;6560;57.692;11.958;2023-04-24T13:12:31;3.67;;;3.37;;
12990;SDS011;6560;57.692;11.958;2023-04-24T13:14:57;4.03;;;3.73;;
12990;SDS011;6560;57.692;11.958;2023-04-24T13:17:23;3.60;;;3.30;;
12990;SDS011;6560;57.692;11.958;2023-04-24T13:19:49;5.43;;;3.10;;
12990;SDS011;6560;57.692;11.958;2023-04-24T13:22:16;4.33;;;3.70;;
12990;SDS011;6560;57.692;11.958;2023-04-24T13:24:44;4.07;;;3.67;;
12990;SDS011;6560;57.692;11.958;2023-04-24T13:27:10;4.00;;;3.57;;
12990;SDS011;6560;57.692;11.958;2023-04-24T13:29:37;4.43;;;4.13;;
12990;SDS011;6560;57.692;11.958;2023-04-24T13:32:02;3.83;;;3.40;;
12990;SDS011;6560;57.692;11.958;2023-04-24T13:34:28;4.17;;;3.83;;
12990;SDS011;6560;57.692;11.958;2023-04-24T13:36:54;4.53;;;4.13;;
12990;SDS011;6560;57.692;11.958;2023-04-24T13:39:22;5.10;;;3.93;;
12990;SDS011;6560;57.692;11.958;2023-04-24T13:41:48;4.60;;;4.20;;
12990;SDS011;6560;57.692;11.958;2023-04-24T13:44:16;5.90;;;3.37;;
12990;SDS011;6560;57.692;11.958;2023-04-24T13:46:43;4.40;;;3.72;;
12990;SDS011;6560;57.692;11.958;2023-04-24T13:49:11;3.92;;;3.55;;
12990;SDS011;6560;57.692;11.958;2023-04-24T13:51:38;5.07;;;4.05;;
12990;SDS011;6560;57.692;11.958;2023-04-24T13:54:03;5.90;;;4.53;;
12990;SDS011;6560;57.692;11.958;2023-04-24T13:56:29;5.43;;;4.33;;
12990;SDS011;6560;57.692;11.958;2023-04-24T13:58:55;5.63;;;4.43;;
12990;SDS011;6560;57.692;11.958;2023-04-24T14:01:21;4.65;;;3.85;;
12990;SDS011;6560;57.692;11.958;2023-04-24T14:03:50;3.97;;;3.58;;
12990;SDS011;6560;57.692;11.958;2023-04-24T14:06:19;4.47;;;4.05;;
12990;SDS011;6560;57.692;11.958;2023-04-24T14:08:45;5.00;;;4.60;;
12990;SDS011;6560;57.692;11.958;2023-04-24T14:11:11;6.00;;;4.55;;
12990;SDS011;6560;57.692;11.958;2023-04-24T14:13:37;6.20;;;4.95;;
12990;SDS011;6560;57.692;11.958;2023-04-24T14:16:04;7.45;;;5.13;;
12990;SDS011;6560;57.692;11.958;2023-04-24T14:18:31;5.60;;;5.07;;
12990;SDS011;6560;57.692;11.958;2023-04-24T14:20:56;9.80;;;6.97;;
12990;SDS011;6560;57.692;11.958;2023-04-24T14:23:22;6.97;;;6.27;;
12990;SDS011;6560;57.692;11.958;2023-04-24T14:25:48;6.32;;;5.70;;
12990;SDS011;6560;57.692;11.958;2023-04-24T14:28:17;6.23;;;5.50;;
12990;SDS011;6560;57.692;11.958;2023-04-24T14:30:44;7.63;;;6.70;;
12990;SDS011;6560;57.692;11.958;2023-04-24T14:33:09;5.63;;;4.97;;
12990;SDS011;6560;57.692;11.958;2023-04-24T14:35:35;8.03;;;5.47;;
12990;SDS011;6560;57.692;11.958;2023-04-24T14:38:01;5.40;;;4.97;;
12990;SDS011;6560;57.692;11.958;2023-04-24T14:40:27;6.13;;;5.22;;
12990;SDS011;6560;57.692;11.958;2023-04-24T14:42:52;6.30;;;5.70;;
12990;SDS011;6560;57.692;11.958;2023-04-24T14:45:18;5.97;;;5.33;;
12990;SDS011;6560;57.692;11.958;2023-04-24T14:47:44;8.43;;;5.55;;
12990;SDS011;6560;57.692;11.958;2023-04-24T14:50:10;5.27;;;4.77;;
12990;SDS011;6560;57.692;11.958;2023-04-24T14:52:37;6.60;;;5.70;;